Time;durP1;ratioP1;P1;durP2;ratioP2;P2;SDS_P1;SDS_P2;PMS_P1;PMS_P2;Temp;Humidity;BMP_temperature;BMP_pressure;BME280_temperature;BME280_humidity;BME280_pressure;Samples;Min_cycle;Max_cycle;Signal;HPM_P1;HPM_P2
2023/05/12 00:00:18;;;;;;;6.22;3.88;;;;;;;18.28;67.78;101555.22;6120759;23;20017;-48
2023/05/12 00:02:43;;;;;;;7.63;4.60;;;;;;;18.28;68.24;101557.91;6121580;23;20021;-47
2023/05/12 00:05:09;;;;;;;8.77;4.85;;;;;;;18.27;67.92;101553.50;6121090;23;20310;-48
2023/05/12 00:07:35;;;;;;;7.63;4.50;;;;;;;18.27;67.86;101556.19;6121049;23;20083;-49
2023/05/12 00:10:00;;;;;;;9.27;4.43;;;;;;;18.27;67.69;101558.88;6121889;23;20020;-47
2023/05/12 00:12:26;;;;;;;7.55;4.45;;;;;;;18.27;67.95;101558.03;6121646;23;20424;-47
2023/05/12 00:14:51;;;;;;;7.10;4.60;;;;;;;18.27;67.90;101556.19;6120937;23;20336;-47
2023/05/12 00:17:17;;;;;;;5.13;3.63;;;;;;;18.27;67.97;101553.50;6121006;23;20016;-50
2023/05/12 00:19:43;;;;;;;7.60;4.53;;;;;;;18.27;68.00;101556.19;6121183;23;20014;-48
2023/05/12 00:22:10;;;;;;;6.10;4.03;;;;;;;18.27;68.10;101552.66;6121122;23;20017;-46
2023/05/12 00:24:35;;;;;;;5.72;4.18;;;;;;;18.27;67.74;101548.09;6121209;23;20057;-46
2023/05/12 00:27:01;;;;;;;7.13;3.85;;;;;;;18.27;67.96;101549.97;6121047;23;20317;-46
2023/05/12 00:29:26;;;;;;;7.68;4.03;;;;;;;18.26;67.92;101546.41;6121642;23;20081;-49
2023/05/12 00:31:52;;;;;;;7.70;4.55;;;;;;;18.26;67.47;101543.72;6120933;23;20421;-47
2023/05/12 00:34:17;;;;;;;6.88;4.45;;;;;;;18.26;67.96;101550.94;6121082;23;20005;-47
2023/05/12 00:36:42;;;;;;;7.40;4.18;;;;;;;18.27;67.92;101549.97;6120934;23;20397;-48
2023/05/12 00:39:08;;;;;;;7.32;4.13;;;;;;;18.26;68.01;101542.84;6095189;23;20081;-47
2023/05/12 00:41:34;;;;;;;6.05;4.53;;;;;;;18.27;67.78;101547.25;6120888;23;20037;-48
2023/05/12 00:43:59;;;;;;;6.43;4.03;;;;;;;18.25;67.71;101552.78;6120912;23;20038;-50
2023/05/12 00:46:26;;;;;;;7.80;4.30;;;;;;;18.26;67.91;101545.53;6121046;23;20010;-49
2023/05/12 00:48:51;;;;;;;6.68;4.28;;;;;;;18.26;67.80;101546.41;6120273;23;20016;-48
2023/05/12 00:51:17;;;;;;;6.85;4.25;;;;;;;18.25;67.86;101539.28;6120795;23;20013;-46
2023/05/12 00:53:42;;;;;;;6.03;4.30;;;;;;;18.25;67.75;101544.69;6120762;23;20010;-49
2023/05/12 00:56:09;;;;;;;5.72;3.65;;;;;;;18.25;67.79;101543.84;6120734;23;20006;-49
2023/05/12 00:58:34;;;;;;;7.72;4.28;;;;;;;18.24;67.64;101539.41;6120944;23;20044;-47
2023/05/12 01:00:59;;;;;;;6.78;3.92;;;;;;;18.24;67.78;101532.22;6119845;23;20045;-48
2023/05/12 01:03:25;;;;;;;5.47;3.80;;;;;;;18.25;67.97;101539.28;6121052;23;20021;-47
2023/05/12 01:06:39;;;;;;;6.40;3.78;;;;;;;18.27;67.78;101534.63;6120773;23;20088;-47
2023/05/12 01:09:04;;;;;;;5.80;4.07;;;;;;;18.25;67.87;101538.44;6041524;23;20038;-48
2023/05/12 01:11:30;;;;;;;6.50;3.95;;;;;;;18.23;67.81;101530.50;6120894;23;20065;-47
2023/05/12 01:13:55;;;;;;;5.10;3.40;;;;;;;18.24;67.87;101531.34;6121379;23;20036;-47
2023/05/12 01:16:24;;;;;;;5.15;4.22;;;;;;;18.22;67.70;101520.72;6094837;23;20016;-47
2023/05/12 01:18:53;;;;;;;7.32;4.05;;;;;;;18.22;67.67;101528.81;6120781;23;20639;-48
2023/05/12 01:21:19;;;;;;;5.55;3.65;;;;;;;18.22;67.76;101531.50;6120656;23;20009;-48
2023/05/12 01:23:50;;;;;;;5.90;3.50;;;;;;;18.21;67.85;101527.06;6094513;23;20326;-49
2023/05/12 01:26:15;;;;;;;;;;;;;;;18.31;67.42;101519.91;6121314;23;20061;-49
2023/05/12 01:28:41;;;;;;;5.40;3.80;;;;;;;18.25;67.48;101522.28;6120504;23;19909;-48
2023/05/12 01:31:08;;;;;;;5.00;3.25;;;;;;;18.23;67.62;101519.72;6119883;23;20010;-46
2023/05/12 01:33:34;;;;;;;5.18;3.67;;;;;;;18.22;67.51;101515.31;6120255;23;20013;-46
2023/05/12 01:35:59;;;;;;;4.95;3.05;;;;;;;18.21;67.78;101510.91;6120636;23;20010;-47
2023/05/12 01:38:25;;;;;;;4.60;3.17;;;;;;;18.22;67.82;101514.44;6121058;23;20032;-46
2023/05/12 01:40:51;;;;;;;6.75;3.67;;;;;;;18.21;67.68;101516.28;6120420;23;20332;-46
2023/05/12 01:43:16;;;;;;;8.90;3.70;;;;;;;18.21;67.89;101512.75;6120579;23;20022;-47
2023/05/12 01:45:42;;;;;;;5.18;3.28;;;;;;;18.21;67.92;101510.91;6120103;23;20500;-48
2023/05/12 01:48:07;;;;;;;6.03;3.67;;;;;;;18.21;67.97;101510.06;6120161;23;20006;-46
2023/05/12 01:50:32;;;;;;;6.00;3.70;;;;;;;18.22;68.00;101511.75;6120420;23;20157;-47
2023/05/12 01:52:58;;;;;;;5.22;3.72;;;;;;;18.21;67.98;101510.06;6120929;23;20021;-46
2023/05/12 01:55:23;;;;;;;5.68;3.67;;;;;;;18.21;67.82;101516.28;6120525;23;20433;-46
2023/05/12 01:57:49;;;;;;;5.05;3.08;;;;;;;18.21;67.68;101513.59;6094093;23;20016;-46
2023/05/12 02:00:14;;;;;;;4.70;3.55;;;;;;;18.20;67.81;101503.81;6119018;23;20026;-50
2023/05/12 02:02:41;;;;;;;5.53;3.47;;;;;;;18.20;67.89;101505.63;6118615;23;20088;-47
2023/05/12 02:05:07;;;;;;;5.80;3.80;;;;;;;18.19;67.90;101502.09;6118869;23;20376;-47
2023/05/12 02:07:32;;;;;;;5.72;3.17;;;;;;;18.20;67.90;101500.25;6119609;23;20006;-47
2023/05/12 02:09:58;;;;;;;4.72;3.05;;;;;;;18.20;67.82;101498.44;6120862;23;20014;-46
2023/05/12 02:12:23;;;;;;;6.35;3.50;;;;;;;18.20;67.68;101495.72;6119826;23;20092;-48
2023/05/12 02:14:48;;;;;;;6.13;3.50;;;;;;;18.20;67.85;101497.53;6120235;23;20033;-46
2023/05/12 02:17:15;;;;;;;6.70;3.42;;;;;;;18.19;67.59;101491.31;6120089;23;20010;-47
2023/05/12 02:19:41;;;;;;;5.72;3.60;;;;;;;18.18;67.61;101489.59;6120018;23;20009;-48
2023/05/12 02:22:06;;;;;;;4.70;3.08;;;;;;;18.20;67.76;101492.16;6120177;23;20519;-46
2023/05/12 02:24:32;;;;;;;5.85;3.60;;;;;;;18.19;67.54;101493.16;6119740;23;20033;-48
2023/05/12 02:26:57;;;;;;;4.35;3.28;;;;;;;18.19;67.65;101487.78;6121016;23;20037;-47
2023/05/12 02:29:22;;;;;;;4.35;2.95;;;;;;;18.19;67.70;101485.06;6120214;23;20416;-45
2023/05/12 02:31:48;;;;;;;3.72;2.90;;;;;;;18.18;67.78;101484.19;6119976;23;20061;-47
2023/05/12 02:34:13;;;;;;;5.10;3.45;;;;;;;18.17;67.82;101474.41;6120087;23;20021;-47
2023/05/12 02:36:38;;;;;;;4.60;3.03;;;;;;;18.17;67.52;101483.34;6120594;23;20036;-46
2023/05/12 02:39:04;;;;;;;3.60;2.78;;;;;;;18.17;67.61;101479.81;6120117;23;20421;-47
2023/05/12 02:41:29;;;;;;;4.40;2.80;;;;;;;18.17;67.71;101477.97;6119843;23;20036;-47
2023/05/12 02:43:55;;;;;;;5.20;2.88;;;;;;;18.16;67.60;101484.34;6120870;23;20106;-48
2023/05/12 02:46:20;;;;;;;3.45;2.88;;;;;;;18.16;67.56;101467.31;6119969;23;20006;-45
2023/05/12 02:48:45;;;;;;;4.63;3.05;;;;;;;18.16;67.55;101475.41;6120087;23;20016;-48
2023/05/12 02:51:11;;;;;;;5.32;2.90;;;;;;;18.16;67.48;101464.59;6120074;23;20021;-46
2023/05/12 02:53:36;;;;;;;3.72;2.47;;;;;;;18.15;67.84;101473.69;6119909;23;20009;-46
2023/05/12 02:56:02;;;;;;;3.60;2.78;;;;;;;18.15;67.55;101460.22;6119938;23;20137;-48
2023/05/12 02:58:27;;;;;;;4.50;3.10;;;;;;;18.14;67.33;101462.06;6120022;23;20006;-47
2023/05/12 03:00:52;;;;;;;4.07;2.50;;;;;;;18.15;67.33;101463.75;6119541;23;20018;-46
2023/05/12 03:03:18;;;;;;;6.53;3.22;;;;;;;18.15;67.57;101454.84;6119987;23;20013;-47
2023/05/12 03:05:43;;;;;;;5.55;3.22;;;;;;;18.14;67.40;101448.59;6120062;23;20018;-47
2023/05/12 03:08:09;;;;;;;3.90;2.70;;;;;;;18.14;67.43;101445.91;6119952;23;20002;-48
2023/05/12 03:10:36;;;;;;;3.67;2.72;;;;;;;18.14;67.47;101454.00;6121298;23;20029;-48
2023/05/12 03:13:02;;;;;;;6.40;2.67;;;;;;;18.14;67.51;101450.41;6121843;23;20006;-46
2023/05/12 03:15:27;;;;;;;4.95;2.95;;;;;;;18.14;67.39;101442.34;6121851;23;20021;-47
2023/05/12 03:17:52;;;;;;;3.22;2.38;;;;;;;18.14;67.41;101454.00;6121956;23;20014;-48
2023/05/12 03:20:18;;;;;;;3.55;2.70;;;;;;;18.13;67.31;101449.56;6095576;23;20017;-47
2023/05/12 03:22:44;;;;;;;4.78;2.80;;;;;;;18.13;67.23;101444.19;6121735;23;20050;-46
2023/05/12 03:25:11;;;;;;;3.30;2.60;;;;;;;18.13;67.36;101444.19;6121349;23;20006;-46
2023/05/12 03:27:36;;;;;;;2.78;2.47;;;;;;;18.13;67.38;101443.34;6121785;23;20006;-48
2023/05/12 03:30:03;;;;;;;3.15;2.40;;;;;;;18.13;67.62;101437.94;6121529;23;20101;-47
2023/05/12 03:32:29;;;;;;;4.63;2.53;;;;;;;18.13;67.38;101437.94;6121848;23;20017;-47
2023/05/12 03:34:55;;;;;;;3.58;2.70;;;;;;;18.13;67.82;101440.63;6122455;23;20018;-50
2023/05/12 03:37:20;;;;;;;4.57;2.95;;;;;;;18.12;67.66;101441.63;6121338;23;20489;-48
2023/05/12 03:39:45;;;;;;;3.92;2.67;;;;;;;18.13;67.28;101437.94;6121482;23;20009;-47
2023/05/12 03:42:12;;;;;;;3.30;2.20;;;;;;;18.13;67.37;101427.16;6121555;23;20085;-47
2023/05/12 03:44:37;;;;;;;3.08;2.30;;;;;;;18.11;67.53;101431.84;6121313;23;20046;-47
2023/05/12 03:47:03;;;;;;;4.50;2.78;;;;;;;18.11;67.38;101424.59;6121640;23;20061;-46
2023/05/12 03:49:28;;;;;;;3.15;2.13;;;;;;;18.11;67.40;101421.06;6122190;23;20010;-47
2023/05/12 03:51:53;;;;;;;2.60;2.40;;;;;;;18.11;67.44;101421.91;6121380;23;20089;-47
2023/05/12 03:54:19;;;;;;;2.38;2.08;;;;;;;18.12;67.38;101422.75;6121295;23;20014;-47
2023/05/12 03:56:44;;;;;;;3.90;2.70;;;;;;;18.11;67.34;101423.75;6121443;23;20006;-47
2023/05/12 03:59:10;;;;;;;4.68;2.40;;;;;;;18.11;67.30;101424.59;6121361;23;20020;-47
2023/05/12 04:01:36;;;;;;;2.63;2.10;;;;;;;18.10;67.34;101416.63;6119100;23;20021;-48
2023/05/12 04:04:01;;;;;;;3.63;2.63;;;;;;;18.10;67.62;101422.03;6120233;23;20017;-48
2023/05/12 04:06:27;;;;;;;4.53;2.70;;;;;;;18.10;67.16;101413.94;6121020;23;20706;-47
2023/05/12 04:08:52;;;;;;;3.13;2.33;;;;;;;18.10;67.31;101422.03;6121187;23;20013;-47
2023/05/12 04:11:17;;;;;;;3.30;2.08;;;;;;;18.11;67.26;101421.06;6121329;23;20452;-48
2023/05/12 04:13:43;;;;;;;3.33;2.30;;;;;;;18.09;67.65;101421.19;6120535;23;20018;-47
2023/05/12 04:16:08;;;;;;;2.83;2.25;;;;;;;18.10;67.39;101413.94;6121082;23;20013;-47
2023/05/12 04:18:35;;;;;;;3.25;2.40;;;;;;;18.10;67.38;101419.34;6121190;23;20028;-46
2023/05/12 04:21:01;;;;;;;3.40;2.38;;;;;;;18.09;67.36;101417.66;6120532;23;20463;-46
2023/05/12 04:23:27;;;;;;;3.63;2.47;;;;;;;18.08;67.35;101419.47;6121358;23;20018;-48
2023/05/12 04:25:52;;;;;;;4.47;3.00;;;;;;;18.08;67.24;101413.22;6121011;23;20021;-48
2023/05/12 04:28:17;;;;;;;3.10;2.70;;;;;;;18.08;67.32;101427.53;6121142;23;20021;-50
2023/05/12 04:30:43;;;;;;;2.75;2.10;;;;;;;18.08;67.42;101413.22;6120807;23;20080;-46
2023/05/12 04:33:08;;;;;;;2.90;1.95;;;;;;;18.08;67.07;101418.63;6120955;23;20009;-50
2023/05/12 04:35:34;;;;;;;3.55;2.28;;;;;;;18.08;67.15;101413.22;6121051;23;20089;-48
2023/05/12 04:38:00;;;;;;;2.97;2.45;;;;;;;18.08;67.26;101418.63;6120891;23;20010;-48
2023/05/12 04:40:26;;;;;;;5.35;2.25;;;;;;;18.07;67.29;101416.94;6121604;23;20303;-47
2023/05/12 04:42:51;;;;;;;4.13;2.33;;;;;;;18.07;67.62;101414.22;6121399;23;20085;-46
2023/05/12 04:45:16;;;;;;;3.40;2.28;;;;;;;18.07;67.11;101419.63;6120628;23;20017;-46
2023/05/12 04:47:42;;;;;;;3.28;2.50;;;;;;;18.07;67.37;101422.31;6120774;23;20457;-46
2023/05/12 04:50:09;;;;;;;2.60;2.15;;;;;;;18.06;67.27;101426.81;6094892;23;20062;-48
2023/05/12 04:52:34;;;;;;;4.55;2.30;;;;;;;18.07;67.43;101433.09;6121117;23;20084;-46
2023/05/12 04:55:00;;;;;;;3.83;2.15;;;;;;;18.06;67.27;101426.81;6121021;23;20464;-46
2023/05/12 04:57:25;;;;;;;3.22;2.08;;;;;;;18.06;67.24;101432.22;6121208;23;20044;-49
2023/05/12 04:59:51;;;;;;;2.50;2.10;;;;;;;18.06;67.24;101431.38;6120550;23;20088;-48
2023/05/12 05:02:16;;;;;;;5.43;2.65;;;;;;;18.06;67.11;101434.06;6121179;23;20018;-47
2023/05/12 05:04:41;;;;;;;3.95;2.08;;;;;;;18.07;67.11;101438.47;6120775;23;20433;-47
2023/05/12 05:07:07;;;;;;;2.55;2.28;;;;;;;18.05;67.06;101441.31;6120798;23;20384;-47
2023/05/12 05:09:32;;;;;;;2.92;2.20;;;;;;;18.05;67.33;101445.81;6120645;23;20013;-49
2023/05/12 05:11:58;;;;;;;3.20;2.50;;;;;;;18.05;67.07;101435.03;6121507;23;20033;-47
2023/05/12 05:14:23;;;;;;;2.65;1.90;;;;;;;18.05;67.29;101440.44;6120722;23;20021;-47
2023/05/12 05:16:48;;;;;;;3.33;2.10;;;;;;;18.04;67.34;101439.59;6120727;23;20633;-46
2023/05/12 05:19:14;;;;;;;3.72;2.50;;;;;;;18.04;67.19;101444.13;6120447;23;20037;-47
2023/05/12 05:21:40;;;;;;;3.75;2.53;;;;;;;18.05;67.07;101445.81;6120662;23;20041;-48
2023/05/12 05:24:05;;;;;;;2.65;2.22;;;;;;;18.04;67.16;101446.81;6120386;23;20010;-48
2023/05/12 05:26:31;;;;;;;3.65;2.42;;;;;;;18.04;67.16;101455.75;6120467;23;20325;-46
2023/05/12 05:28:56;;;;;;;4.75;2.80;;;;;;;18.04;67.45;101457.59;6094988;23;20306;-47
2023/05/12 05:31:22;;;;;;;3.75;2.28;;;;;;;18.04;67.33;101460.28;6119798;23;20041;-47
2023/05/12 05:33:48;;;;;;;3.00;2.20;;;;;;;18.04;67.32;101461.13;6120183;23;20428;-47
2023/05/12 05:36:13;;;;;;;4.03;2.70;;;;;;;18.03;67.50;101459.44;6120341;23;20480;-48
2023/05/12 05:38:38;;;;;;;3.00;2.33;;;;;;;18.03;67.17;101456.75;6120526;23;20382;-47
2023/05/12 05:41:04;;;;;;;3.08;2.45;;;;;;;18.04;67.41;101463.00;6120831;23;20018;-49
2023/05/12 05:43:30;;;;;;;3.33;2.47;;;;;;;18.03;67.41;101469.34;6120126;23;20381;-47
2023/05/12 05:45:56;;;;;;;2.80;2.13;;;;;;;18.03;67.30;101470.22;6120409;23;20093;-50
2023/05/12 05:48:25;;;;;;;2.95;2.50;;;;;;;18.03;67.17;101474.75;6120264;23;20018;-51
2023/05/12 05:50:51;;;;;;;3.67;2.60;;;;;;;18.02;67.32;101473.88;6121155;23;20325;-47
2023/05/12 05:53:18;;;;;;;3.80;2.10;;;;;;;18.02;67.37;101476.59;6123006;23;20006;-47
2023/05/12 05:55:44;;;;;;;3.97;2.50;;;;;;;18.04;67.72;101476.47;6122601;23;20369;-48
2023/05/12 05:58:10;;;;;;;3.75;2.40;;;;;;;18.03;67.99;101477.44;6122814;23;20092;-48
2023/05/12 06:00:36;;;;;;;11.82;2.67;;;;;;;18.04;67.94;101487.25;6121631;23;20021;-47
2023/05/12 06:03:02;;;;;;;4.78;2.50;;;;;;;18.04;68.11;101487.25;6122889;23;20436;-46
2023/05/12 06:05:27;;;;;;;3.50;2.63;;;;;;;18.04;67.91;101496.16;6123158;23;20010;-46
2023/05/12 06:07:53;;;;;;;3.35;2.25;;;;;;;18.05;68.12;101495.19;6122508;23;20005;-48
2023/05/12 06:10:18;;;;;;;3.75;2.88;;;;;;;18.04;68.29;101488.09;6122050;23;20064;-47
2023/05/12 06:12:43;;;;;;;4.53;2.63;;;;;;;18.05;67.97;101494.31;6122811;23;20041;-47
2023/05/12 06:15:09;;;;;;;4.50;2.80;;;;;;;18.04;67.97;101501.56;6122706;23;20060;-47
2023/05/12 06:17:35;;;;;;;4.95;2.90;;;;;;;18.04;68.13;101503.41;6122518;23;20017;-46
2023/05/12 06:20:01;;;;;;;6.43;2.88;;;;;;;18.04;67.84;101509.63;6097040;23;20017;-47
2023/05/12 06:22:26;;;;;;;4.07;2.85;;;;;;;18.04;67.93;101506.09;6123657;23;20002;-48
2023/05/12 06:24:52;;;;;;;3.15;2.47;;;;;;;18.04;67.99;101519.56;6122110;23;20127;-48
2023/05/12 06:27:17;;;;;;;3.92;2.63;;;;;;;18.05;67.70;101529.34;6122595;23;20010;-46
2023/05/12 06:29:42;;;;;;;3.80;2.60;;;;;;;18.04;67.62;101525.81;6122353;23;20068;-48
2023/05/12 06:32:08;;;;;;;10.57;3.38;;;;;;;18.04;67.63;101531.19;6122254;23;20010;-47
2023/05/12 06:34:33;;;;;;;5.45;3.67;;;;;;;18.05;67.89;101526.66;6122717;23;20029;-48
2023/05/12 06:36:59;;;;;;;4.40;3.03;;;;;;;18.04;67.96;101531.19;6123013;23;20084;-46
2023/05/12 06:39:25;;;;;;;4.72;3.55;;;;;;;18.04;67.92;101536.59;6122710;23;20017;-49
2023/05/12 06:41:50;;;;;;;5.10;3.15;;;;;;;18.04;68.12;101535.75;6122446;23;20042;-46
2023/05/12 06:44:16;;;;;;;4.43;3.33;;;;;;;18.05;68.08;101537.44;6122494;23;20017;-47
2023/05/12 06:46:41;;;;;;;5.47;3.33;;;;;;;18.05;67.98;101538.31;6123762;23;20314;-45
2023/05/12 06:49:07;;;;;;;6.18;3.40;;;;;;;18.05;67.99;101537.44;6124732;23;20006;-47
2023/05/12 06:51:33;;;;;;;6.75;3.47;;;;;;;18.05;68.15;101540.13;6124250;23;20006;-47
2023/05/12 06:54:00;;;;;;;5.55;4.30;;;;;;;18.05;68.03;101548.22;6125083;23;20028;-47
2023/05/12 06:56:25;;;;;;;7.07;4.18;;;;;;;18.05;68.08;101542.81;6125199;23;20071;-49
2023/05/12 06:58:51;;;;;;;9.25;4.07;;;;;;;18.05;68.39;101549.09;6124633;23;20085;-48
2023/05/12 07:01:17;;;;;;;5.25;4.18;;;;;;;18.06;68.28;101556.19;6124111;23;20021;-47
2023/05/12 07:03:42;;;;;;;6.75;4.10;;;;;;;18.05;68.10;101553.59;6124777;23;20329;-46
2023/05/12 07:06:08;;;;;;;5.47;3.55;;;;;;;18.06;68.01;101556.19;6124959;23;20013;-49
2023/05/12 07:08:33;;;;;;;4.30;3.53;;;;;;;18.06;68.20;101558.88;6125159;23;20002;-49
2023/05/12 07:10:59;;;;;;;5.78;4.75;;;;;;;18.06;67.96;101561.56;6125619;23;20009;-48
2023/05/12 07:13:25;;;;;;;8.75;4.32;;;;;;;18.06;68.11;101566.09;6125329;23;20013;-48
2023/05/12 07:15:50;;;;;;;4.53;3.80;;;;;;;18.07;68.28;101570.53;6124883;23;20443;-45
2023/05/12 07:18:15;;;;;;;5.25;3.92;;;;;;;18.06;68.22;101561.56;6098256;23;20333;-46
2023/05/12 07:20:41;;;;;;;5.78;4.30;;;;;;;18.06;68.03;101566.97;6123493;23;20014;-46
2023/05/12 07:23:06;;;;;;;5.45;4.35;;;;;;;18.06;67.92;101563.41;6123786;23;20009;-47
2023/05/12 07:25:32;;;;;;;7.50;4.70;;;;;;;18.07;68.07;101563.28;6124000;23;20425;-47
2023/05/12 07:27:57;;;;;;;6.07;4.50;;;;;;;18.07;67.90;101563.28;6123400;23;20092;-46
2023/05/12 07:30:22;;;;;;;6.65;4.68;;;;;;;18.07;67.97;101565.97;6123241;23;20018;-48
2023/05/12 07:32:48;;;;;;;6.10;4.60;;;;;;;18.08;67.99;101566.84;6123719;23;20014;-47
2023/05/12 07:35:13;;;;;;;8.00;5.10;;;;;;;18.08;67.77;101564.13;6124761;23;20012;-48
2023/05/12 07:37:40;;;;;;;5.50;4.63;;;;;;;18.10;67.94;101567.56;6124867;23;20014;-50
2023/05/12 07:40:06;;;;;;;6.15;4.60;;;;;;;18.09;67.98;101571.25;6124811;23;20010;-48
2023/05/12 07:42:31;;;;;;;6.90;5.30;;;;;;;18.09;68.20;101569.41;6125644;23;20037;-46
2023/05/12 07:44:57;;;;;;;5.90;5.30;;;;;;;18.10;68.02;101572.94;6124667;23;20337;-47
2023/05/12 07:47:22;;;;;;;6.75;5.13;;;;;;;18.09;67.95;101569.41;6124772;23;20006;-47
2023/05/12 07:49:47;;;;;;;6.18;4.88;;;;;;;18.10;68.41;101578.34;6124604;23;20033;-47
2023/05/12 07:52:13;;;;;;;7.53;5.35;;;;;;;18.09;68.08;101585.56;6125025;23;20013;-46
2023/05/12 07:54:38;;;;;;;8.65;5.50;;;;;;;18.10;67.87;101584.56;6124652;23;20468;-46
2023/05/12 07:57:04;;;;;;;5.80;5.20;;;;;;;18.10;68.00;101594.50;6124682;23;20523;-47
2023/05/12 07:59:29;;;;;;;7.00;5.10;;;;;;;18.10;67.88;101595.34;6124711;23;20036;-47
2023/05/12 08:01:55;;;;;;;5.57;5.05;;;;;;;18.09;68.02;101577.50;6124427;23;20026;-46
2023/05/12 08:04:20;;;;;;;5.10;4.60;;;;;;;18.10;67.86;101589.13;6124594;23;20006;-47
2023/05/12 08:06:45;;;;;;;5.70;4.68;;;;;;;18.10;67.75;101586.41;6124775;23;20018;-48
2023/05/12 08:09:11;;;;;;;6.18;5.32;;;;;;;18.10;67.74;101594.50;6124607;23;20325;-46
2023/05/12 08:11:36;;;;;;;5.35;4.78;;;;;;;18.10;67.71;101589.13;6124862;23;20045;-46
2023/05/12 08:14:02;;;;;;;5.97;5.18;;;;;;;18.10;67.70;101600.75;6125039;23;20504;-47
2023/05/12 08:16:28;;;;;;;5.53;5.00;;;;;;;18.11;67.53;101598.94;6124321;23;20014;-47
2023/05/12 08:18:53;;;;;;;5.32;4.82;;;;;;;18.11;67.72;101601.63;6124543;23;20071;-46
2023/05/12 08:21:18;;;;;;;5.60;5.10;;;;;;;18.11;67.69;101596.22;6124400;23;20061;-47
2023/05/12 08:23:44;;;;;;;5.15;4.65;;;;;;;18.10;67.63;101600.75;6124796;23;20025;-46
2023/05/12 08:26:09;;;;;;;4.93;4.45;;;;;;;18.11;67.49;101596.22;6124467;23;20329;-46
2023/05/12 08:28:34;;;;;;;6.80;5.28;;;;;;;18.12;67.34;101606.00;6124765;23;20080;-47
2023/05/12 08:31:01;;;;;;;5.53;4.68;;;;;;;18.12;67.71;101604.16;6124468;23;20010;-48
2023/05/12 08:33:26;;;;;;;4.90;4.40;;;;;;;18.13;67.41;101607.75;6124340;23;20061;-48
2023/05/12 08:35:52;;;;;;;4.68;4.20;;;;;;;18.13;67.42;101610.44;6124249;23;20366;-46
2023/05/12 08:38:17;;;;;;;5.20;4.70;;;;;;;18.13;67.57;101607.75;6124117;23;20332;-46
2023/05/12 08:41:06;;;;;;;6.53;4.70;;;;;;;18.15;67.47;101613.84;6124308;23;20041;-47
2023/05/12 08:43:44;;;;;;;6.07;4.55;;;;;;;18.14;67.61;101613.00;6124648;23;20009;-48
2023/05/12 08:46:11;;;;;;;5.03;4.53;;;;;;;18.14;67.54;101617.50;6124133;23;20006;-46
2023/05/12 08:48:38;;;;;;;4.80;4.30;;;;;;;18.14;67.55;101613.00;6124830;23;20008;-47
2023/05/12 08:51:08;;;;;;;4.85;4.45;;;;;;;18.14;67.41;101617.50;6123793;23;20018;-51
2023/05/12 08:53:36;;;;;;;4.18;3.78;;;;;;;18.16;67.40;101615.53;6124450;23;20468;-49
2023/05/12 08:56:04;;;;;;;5.30;4.00;;;;;;;18.14;67.22;101629.19;6123543;23;20006;-46
2023/05/12 08:58:30;;;;;;;4.43;3.60;;;;;;;18.15;67.27;101624.63;6123360;23;20005;-46
2023/05/12 09:00:58;;;;;;;4.43;3.90;;;;;;;18.16;67.36;101620.94;6123005;23;20459;-47
2023/05/12 09:03:25;;;;;;;6.63;4.38;;;;;;;18.16;67.33;101631.72;6123380;23;20010;-48
2023/05/12 09:05:51;;;;;;;5.05;4.43;;;;;;;18.16;67.20;101629.91;6123430;23;20012;-47
2023/05/12 09:08:17;;;;;;;4.60;4.20;;;;;;;18.17;67.27;101619.97;6123245;23;20052;-47
2023/05/12 09:10:42;;;;;;;4.60;4.15;;;;;;;18.19;67.08;101626.09;6097522;23;20013;-47
2023/05/12 09:13:14;;;;;;;4.07;3.67;;;;;;;18.18;67.14;101632.44;6123989;23;20002;-47
2023/05/12 09:15:43;;;;;;;4.63;4.15;;;;;;;18.19;67.17;101630.63;6123203;23;20049;-47
2023/05/12 09:18:08;;;;;;;4.40;4.00;;;;;;;18.20;67.16;101637.72;6123454;23;20052;-49
2023/05/12 09:20:34;;;;;;;4.53;3.65;;;;;;;18.20;67.03;101643.97;6124191;23;20080;-48
2023/05/12 09:23:14;;;;;;;4.30;3.72;;;;;;;18.21;67.24;101640.28;6123585;23;20093;-47
2023/05/12 09:25:39;;;;;;;3.65;3.35;;;;;;;18.21;67.36;101632.19;6123240;23;20081;-46
2023/05/12 09:28:05;;;;;;;4.00;3.60;;;;;;;18.21;67.26;101624.13;6124063;23;20370;-47
2023/05/12 09:30:32;;;;;;;5.07;3.70;;;;;;;18.21;67.12;101626.81;6123057;23;20310;-47
2023/05/12 09:33:13;;;;;;;3.78;3.45;;;;;;;18.24;67.40;101628.38;6123382;23;20006;-48
2023/05/12 09:35:42;;;;;;;4.13;3.67;;;;;;;18.23;66.90;101632.91;6123838;23;20013;-47
2023/05/12 09:38:13;;;;;;;3.60;3.30;;;;;;;18.23;67.02;101642.84;6123639;23;20010;-48
2023/05/12 09:40:38;;;;;;;3.42;3.08;;;;;;;18.25;67.06;101644.44;6124157;23;20155;-48
2023/05/12 09:43:05;;;;;;;3.28;3.03;;;;;;;18.24;66.89;101633.78;6123284;23;20005;-48
2023/05/12 09:45:42;;;;;;;4.32;3.47;;;;;;;18.25;67.13;101627.41;6122703;23;20002;-47
2023/05/12 09:48:12;;;;;;;3.53;3.22;;;;;;;18.26;66.91;101639.88;6123784;23;20025;-47
2023/05/12 09:50:45;;;;;;;3.35;2.65;;;;;;;18.27;67.04;101636.22;6123608;23;20010;-48
2023/05/12 09:53:11;;;;;;;4.10;3.10;;;;;;;18.28;66.62;101630.69;6097468;23;20037;-47
2023/05/12 09:55:36;;;;;;;3.83;2.75;;;;;;;18.29;66.77;101639.63;6123560;23;20429;-49
2023/05/12 09:58:07;;;;;;;3.60;2.92;;;;;;;18.29;66.67;101642.34;6122851;23;20010;-47
2023/05/12 10:00:34;;;;;;;6.10;3.50;;;;;;;18.28;66.82;101646.88;6122896;23;20025;-46
2023/05/12 10:03:01;;;;;;;4.40;3.10;;;;;;;18.29;66.99;101642.34;6122878;23;20081;-46
2023/05/12 10:05:27;;;;;;;7.95;3.28;;;;;;;18.28;66.66;101641.50;6122977;23;20089;-46
2023/05/12 10:07:58;;;;;;;10.82;3.38;;;;;;;18.29;66.65;101653.97;6122876;23;20029;-47
2023/05/12 10:10:25;;;;;;;11.18;3.25;;;;;;;18.30;65.77;101655.69;6122919;23;20421;-46
2023/05/12 10:12:51;;;;;;;4.75;2.80;;;;;;;18.30;65.49;101658.38;6122603;23;20041;-45
2023/05/12 10:15:18;;;;;;;6.95;3.45;;;;;;;18.30;65.08;101650.31;6122675;23;20002;-46
2023/05/12 10:17:45;;;;;;;3.58;3.05;;;;;;;18.31;65.15;101651.16;6122994;23;20328;-46
2023/05/12 10:20:12;;;;;;;4.93;3.35;;;;;;;18.30;65.12;101653.00;6124287;23;20010;-48
2023/05/12 10:22:39;;;;;;;2.63;2.42;;;;;;;18.31;65.49;101651.16;6125790;23;20005;-46
2023/05/12 10:25:07;;;;;;;3.65;2.95;;;;;;;18.30;65.82;101661.09;6125014;23;20504;-48
2023/05/12 10:27:33;;;;;;;4.10;3.03;;;;;;;18.31;66.33;101657.38;6124755;23;20006;-47
2023/05/12 10:30:00;;;;;;;3.38;2.78;;;;;;;18.33;66.10;101658.13;6124653;23;20012;-46
2023/05/12 10:32:27;;;;;;;7.47;3.30;;;;;;;18.34;66.67;101664.38;6124631;23;20002;-47
2023/05/12 10:34:52;;;;;;;7.82;3.10;;;;;;;18.33;66.27;101647.34;6124910;23;20014;-50
2023/05/12 10:37:18;;;;;;;8.25;3.72;;;;;;;18.35;66.37;101641.81;6124557;23;20417;-46
2023/05/12 10:39:48;;;;;;;4.68;3.03;;;;;;;18.34;66.57;101659.84;6124843;23;20016;-46
2023/05/12 10:42:19;;;;;;;7.78;3.28;;;;;;;18.35;66.47;101658.88;6124572;23;20010;-46
2023/05/12 10:44:52;;;;;;;6.07;2.83;;;;;;;18.37;66.46;101661.41;6124358;23;20009;-46
2023/05/12 10:47:22;;;;;;;6.90;2.85;;;;;;;18.36;66.18;101665.97;6124600;23;20121;-46
2023/05/12 10:49:55;;;;;;;6.68;2.78;;;;;;;18.36;66.04;101665.97;6124750;23;20024;-47
2023/05/12 10:52:21;;;;;;;8.60;2.80;;;;;;;18.36;66.07;101665.97;6124926;23;20087;-47
2023/05/12 10:54:46;;;;;;;4.88;2.70;;;;;;;18.36;66.04;101665.97;6124474;23;20007;-46
2023/05/12 10:57:19;;;;;;;3.50;2.53;;;;;;;18.36;66.26;101662.41;6125228;23;20417;-45
2023/05/12 10:59:56;;;;;;;4.78;2.65;;;;;;;18.35;66.30;101675.03;6124337;23;20329;-46
2023/05/12 11:02:31;;;;;;;7.20;3.42;;;;;;;18.36;66.35;101678.59;6124529;23;20020;-48
2023/05/12 11:05:02;;;;;;;4.60;2.85;;;;;;;18.37;66.27;101669.50;6124716;23;20006;-45
2023/05/12 11:07:31;;;;;;;3.05;2.70;;;;;;;18.36;66.38;101676.75;6123948;23;20033;-48
2023/05/12 11:10:00;;;;;;;5.07;3.35;;;;;;;18.37;66.55;101672.19;6124410;23;20353;-47
2023/05/12 11:12:31;;;;;;;3.22;2.92;;;;;;;18.38;66.32;101681.16;6124842;23;20480;-45
2023/05/12 11:14:59;;;;;;;3.05;2.50;;;;;;;18.38;66.44;101684.72;6123891;23;20006;-46
2023/05/12 11:17:24;;;;;;;6.25;3.22;;;;;;;18.38;66.31;101689.25;6124131;23;20014;-48
2023/05/12 11:19:51;;;;;;;5.43;2.80;;;;;;;18.39;66.22;101686.44;6124756;23;20105;-47